createdAt,value
2018-11-05T00:00:32.136Z,8.00
2018-11-05T00:03:00.408Z,8.17
2018-11-05T00:05:27.950Z,7.93
2018-11-05T00:07:55.527Z,8.13
2018-11-05T00:10:23.070Z,8.37
2018-11-05T00:12:50.666Z,7.90
2018-11-05T00:15:18.246Z,8.27
2018-11-05T00:17:46.062Z,7.87
2018-11-05T00:20:13.734Z,8.17
2018-11-05T00:22:41.149Z,8.00
2018-11-05T00:25:10.497Z,7.50
2018-11-05T00:27:38.118Z,8.67
2018-11-05T00:30:06.208Z,7.87
2018-11-05T00:32:33.774Z,8.13
2018-11-05T00:35:01.247Z,7.67
2018-11-05T00:37:28.800Z,7.77
2018-11-05T00:39:56.559Z,7.50
2018-11-05T00:42:24.658Z,7.43
2018-11-05T00:44:52.241Z,7.57
2018-11-05T00:47:19.868Z,7.40
2018-11-05T00:49:47.529Z,7.73
2018-11-05T00:52:14.982Z,7.53
2018-11-05T00:54:42.529Z,7.80
2018-11-05T00:57:10.133Z,7.20
2018-11-05T00:59:37.643Z,7.47
2018-11-05T01:02:05.367Z,7.33
2018-11-05T01:04:32.809Z,7.43
2018-11-05T01:07:00.560Z,6.90
2018-11-05T01:09:28.076Z,7.23
2018-11-05T01:11:55.580Z,7.97
2018-11-05T01:14:23.488Z,7.07
2018-11-05T01:16:51.233Z,7.83
2018-11-05T01:19:18.836Z,6.70
2018-11-05T01:21:46.435Z,7.30
2018-11-05T01:24:14.068Z,7.23
2018-11-05T01:26:41.619Z,7.27
2018-11-05T01:29:09.164Z,6.83
2018-11-05T01:31:36.730Z,6.97
2018-11-05T01:34:04.443Z,7.07
2018-11-05T01:36:32.964Z,6.70
2018-11-05T01:39:00.480Z,6.87
2018-11-05T01:41:28.010Z,7.37
2018-11-05T01:43:55.539Z,7.33
2018-11-05T01:46:23.051Z,7.27
2018-11-05T01:48:50.581Z,6.73
2018-11-05T01:51:18.269Z,6.87
2018-11-05T01:53:45.834Z,7.23
2018-11-05T01:56:13.349Z,6.97
2018-11-05T01:58:40.939Z,7.37
2018-11-05T02:01:08.488Z,7.47
2018-11-05T02:03:36.035Z,7.73
2018-11-05T02:06:03.546Z,7.33
2018-11-05T02:08:31.048Z,7.47
2018-11-05T02:10:59.270Z,6.90
2018-11-05T02:13:26.947Z,7.27
2018-11-05T02:15:54.435Z,7.97
2018-11-05T02:18:21.865Z,7.33
2018-11-05T02:20:49.376Z,6.83
2018-11-05T02:23:16.908Z,7.83
2018-11-05T02:25:44.454Z,7.80
2018-11-05T02:28:12.058Z,7.07
2018-11-05T02:30:39.508Z,6.70
2018-11-05T02:33:07.024Z,7.30
2018-11-05T02:35:34.650Z,7.57
2018-11-05T02:38:02.267Z,7.33
2018-11-05T02:40:30.050Z,7.10
2018-11-05T02:42:57.577Z,7.77
2018-11-05T02:45:25.092Z,8.23
2018-11-05T02:47:52.652Z,7.67
2018-11-05T02:50:20.197Z,8.03
2018-11-05T02:52:47.782Z,7.60
2018-11-05T02:55:15.316Z,8.20
2018-11-05T02:57:42.915Z,7.53
2018-11-05T03:00:12.722Z,7.50
2018-11-05T03:02:40.382Z,7.10
2018-11-05T03:05:08.676Z,7.50
2018-11-05T03:07:36.226Z,7.40
2018-11-05T03:10:04.894Z,8.00
2018-11-05T03:12:32.618Z,7.10
2018-11-05T03:15:00.149Z,7.27
2018-11-05T03:17:27.788Z,7.03
2018-11-05T03:19:55.261Z,7.07
2018-11-05T03:22:22.869Z,7.40
2018-11-05T03:24:50.417Z,6.80
2018-11-05T03:27:17.970Z,7.07
2018-11-05T03:29:45.474Z,6.97
2018-11-05T03:32:12.991Z,7.13
2018-11-05T03:34:40.538Z,7.00
2018-11-05T03:37:07.986Z,6.90
2018-11-05T03:39:35.626Z,6.80
2018-11-05T03:42:03.197Z,6.77
2018-11-05T03:44:30.740Z,6.67
2018-11-05T03:46:58.307Z,6.93
2018-11-05T03:49:25.860Z,7.07
2018-11-05T03:51:53.358Z,6.73
2018-11-05T03:54:20.919Z,6.53
2018-11-05T03:56:48.601Z,7.03
2018-11-05T03:59:15.928Z,7.00
2018-11-05T04:01:43.612Z,7.00
2018-11-05T04:04:11.249Z,6.87
2018-11-05T04:06:38.770Z,6.63
2018-11-05T04:09:08.261Z,6.70
2018-11-05T04:11:35.818Z,6.37
2018-11-05T04:14:03.588Z,6.40
2018-11-05T04:16:31.194Z,6.03
2018-11-05T04:18:58.821Z,6.00
2018-11-05T04:21:36.075Z,5.87
2018-11-05T04:24:03.569Z,5.23
2018-11-05T04:26:31.397Z,5.10
2018-11-05T04:28:59.201Z,5.20
2018-11-05T04:31:26.826Z,5.10
2018-11-05T04:33:54.417Z,4.73
2018-11-05T04:36:21.987Z,4.73
2018-11-05T04:38:49.601Z,5.20
2018-11-05T04:41:17.264Z,4.80
2018-11-05T04:43:44.934Z,5.00
2018-11-05T04:46:12.469Z,5.23
2018-11-05T04:48:40.113Z,5.17
2018-11-05T04:51:07.693Z,5.00
2018-11-05T04:53:35.305Z,4.77
2018-11-05T04:56:02.923Z,4.77
2018-11-05T04:58:30.481Z,5.00
2018-11-05T05:00:58.045Z,5.30
2018-11-05T05:03:25.593Z,4.60
2018-11-05T05:05:53.169Z,4.77
2018-11-05T05:08:20.733Z,4.70
2018-11-05T05:10:48.303Z,4.70
2018-11-05T05:13:15.969Z,5.07
2018-11-05T05:15:43.533Z,4.93
2018-11-05T05:18:11.097Z,5.07
2018-11-05T05:20:38.625Z,5.20
2018-11-05T05:23:06.240Z,4.73
2018-11-05T05:25:33.739Z,4.93
2018-11-05T05:28:01.395Z,4.30
2018-11-05T05:30:29.003Z,4.67
2018-11-05T05:32:56.550Z,4.87
2018-11-05T05:35:24.099Z,4.37
2018-11-05T05:37:51.667Z,4.80
2018-11-05T05:40:19.157Z,4.30
2018-11-05T05:42:46.757Z,4.27
2018-11-05T05:45:14.248Z,4.80
2018-11-05T05:47:42.219Z,4.67
2018-11-05T05:50:11.158Z,4.67
2018-11-05T05:52:38.751Z,4.93
2018-11-05T05:55:06.798Z,4.57
2018-11-05T05:57:34.438Z,4.80
2018-11-05T06:00:02.123Z,4.77
2018-11-05T06:02:29.547Z,5.13
2018-11-05T06:04:57.157Z,4.50
2018-11-05T06:07:24.693Z,4.73
2018-11-05T06:09:52.326Z,4.90
2018-11-05T06:12:19.842Z,5.07
2018-11-05T06:14:47.522Z,5.10
2018-11-05T06:17:15.240Z,5.10
2018-11-05T06:19:42.827Z,5.30
2018-11-05T06:22:10.457Z,5.23
2018-11-05T06:24:37.954Z,5.20
2018-11-05T06:27:05.558Z,5.17
2018-11-05T06:29:33.356Z,5.43
2018-11-05T06:32:00.883Z,5.27
2018-11-05T06:34:28.487Z,5.77
2018-11-05T06:36:56.133Z,4.97
2018-11-05T06:39:23.620Z,5.80
2018-11-05T06:41:51.309Z,5.30
2018-11-05T06:44:18.976Z,5.17
2018-11-05T06:46:46.517Z,6.00
2018-11-05T06:49:14.022Z,5.10
2018-11-05T06:51:41.704Z,6.20
2018-11-05T06:54:09.323Z,6.10
2018-11-05T06:56:36.935Z,5.83
2018-11-05T06:59:04.465Z,6.30
2018-11-05T07:01:32.107Z,6.00
2018-11-05T07:03:59.725Z,5.83
2018-11-05T07:06:27.763Z,6.20
2018-11-05T07:08:55.420Z,6.00
2018-11-05T07:11:23.057Z,6.10
2018-11-05T07:13:50.553Z,5.90
2018-11-05T07:16:18.157Z,6.47
2018-11-05T07:18:45.927Z,6.23
2018-11-05T07:21:13.350Z,5.57
2018-11-05T07:23:41.047Z,6.10
2018-11-05T07:26:08.562Z,5.93
2018-11-05T07:28:36.455Z,6.23
2018-11-05T07:31:04.285Z,6.03
2018-11-05T07:33:32.075Z,6.03
2018-11-05T07:35:59.630Z,6.13
2018-11-05T07:38:27.245Z,6.53
2018-11-05T07:40:54.823Z,6.47
2018-11-05T07:43:22.261Z,6.47
2018-11-05T07:45:49.728Z,6.10
2018-11-05T07:48:17.180Z,6.47
2018-11-05T07:50:44.720Z,6.17
2018-11-05T07:53:12.161Z,5.90
2018-11-05T07:55:39.617Z,6.20
2018-11-05T07:58:07.195Z,5.37
2018-11-05T08:00:40.425Z,6.10
2018-11-05T08:03:08.071Z,5.67
2018-11-05T08:05:35.677Z,6.67
2018-11-05T08:08:03.163Z,6.47
2018-11-05T08:10:30.765Z,6.53
2018-11-05T08:12:58.305Z,7.03
2018-11-05T08:15:25.992Z,7.27
2018-11-05T08:17:53.938Z,6.77
2018-11-05T08:20:21.605Z,7.17
2018-11-05T08:22:49.298Z,6.83
2018-11-05T08:25:17.145Z,7.20
2018-11-05T08:27:44.751Z,7.47
2018-11-05T08:30:14.170Z,8.40
2018-11-05T08:32:41.784Z,8.23
2018-11-05T08:35:10.311Z,8.40
2018-11-05T08:37:37.884Z,8.23
2018-11-05T08:40:08.501Z,9.80
2018-11-05T08:42:37.237Z,9.13
2018-11-05T08:47:50.458Z,8.53
2018-11-05T08:50:19.634Z,9.17
2018-11-05T08:52:47.143Z,8.73
2018-11-05T08:55:16.898Z,8.77
2018-11-05T08:57:44.720Z,9.13
2018-11-05T09:00:19.305Z,9.00
2018-11-05T09:02:46.898Z,8.60
2018-11-05T09:05:14.636Z,8.83
2018-11-05T09:07:42.676Z,8.70
2018-11-05T09:10:10.300Z,9.00
2018-11-05T09:12:37.885Z,9.17
2018-11-05T09:15:07.242Z,8.60
2018-11-05T09:17:34.807Z,8.37
2018-11-05T09:20:02.393Z,9.17
2018-11-05T09:22:29.940Z,9.07
2018-11-05T09:24:57.519Z,8.53
2018-11-05T09:27:25.059Z,8.53
2018-11-05T09:29:52.668Z,8.63
2018-11-05T09:32:20.063Z,7.73
2018-11-05T09:34:47.648Z,7.93
2018-11-05T09:37:15.800Z,8.30
2018-11-05T09:39:43.420Z,8.47
2018-11-05T09:42:10.992Z,8.00
2018-11-05T09:44:38.579Z,8.47
2018-11-05T09:47:06.338Z,8.03
2018-11-05T09:49:34.118Z,8.40
2018-11-05T09:52:01.594Z,8.37
2018-11-05T09:54:29.190Z,7.93
2018-11-05T09:56:56.794Z,7.77
2018-11-05T09:59:24.671Z,7.93
2018-11-05T10:01:52.361Z,7.57
2018-11-05T10:04:20.593Z,7.47
2018-11-05T10:06:48.528Z,7.70
2018-11-05T10:09:16.128Z,8.33
2018-11-05T10:14:17.841Z,7.47
2018-11-05T10:16:45.404Z,7.60
2018-11-05T10:19:13.238Z,7.50
2018-11-05T10:21:40.736Z,7.80
2018-11-05T10:24:08.243Z,8.00
2018-11-05T10:26:35.680Z,7.37
2018-11-05T10:29:09.930Z,7.47
2018-11-05T10:31:37.440Z,6.80
2018-11-05T10:34:05.903Z,6.60
2018-11-05T10:36:33.453Z,6.33
2018-11-05T10:39:00.995Z,6.00
2018-11-05T10:41:28.636Z,5.90
2018-11-05T10:43:56.200Z,6.40
2018-11-05T10:46:23.790Z,5.80
2018-11-05T10:48:51.263Z,5.73
2018-11-05T10:51:18.789Z,5.57
2018-11-05T10:53:46.392Z,6.53
2018-11-05T10:56:13.902Z,6.20
2018-11-05T10:58:41.549Z,5.73
2018-11-05T11:01:11.967Z,5.47
2018-11-05T11:03:39.631Z,5.63
2018-11-05T11:06:08.529Z,5.73
2018-11-05T11:08:36.124Z,5.67
2018-11-05T11:11:03.924Z,5.97
2018-11-05T11:13:31.432Z,6.00
2018-11-05T11:15:58.977Z,5.47
2018-11-05T11:18:26.572Z,5.63
2018-11-05T11:20:54.116Z,6.17
2018-11-05T11:23:21.761Z,6.03
2018-11-05T11:25:51.735Z,5.93
2018-11-05T11:28:19.380Z,5.73
2018-11-05T11:30:46.914Z,5.90
2018-11-05T11:33:14.547Z,5.93
2018-11-05T11:35:42.100Z,5.67
2018-11-05T11:38:09.722Z,5.90
2018-11-05T11:40:38.330Z,6.20
2018-11-05T11:43:05.912Z,5.67
2018-11-05T11:45:33.484Z,6.33
2018-11-05T11:48:01.068Z,6.70
2018-11-05T11:50:28.620Z,6.47
2018-11-05T11:52:56.177Z,6.40
2018-11-05T11:55:23.716Z,6.27
2018-11-05T11:57:51.251Z,6.20
2018-11-05T12:00:23.471Z,5.93
2018-11-05T12:02:51.617Z,5.90
2018-11-05T12:05:19.327Z,6.20
2018-11-05T12:07:46.740Z,5.70
2018-11-05T12:10:19.107Z,5.90
2018-11-05T12:12:46.825Z,5.87
2018-11-05T12:15:15.406Z,6.13
2018-11-05T12:17:43.703Z,6.10
2018-11-05T12:20:13.905Z,6.07
2018-11-05T12:22:41.868Z,6.33
2018-11-05T12:25:09.683Z,6.60
2018-11-05T12:27:37.525Z,5.70
2018-11-05T12:30:10.683Z,6.27
2018-11-05T12:32:38.263Z,5.70
2018-11-05T12:35:06.780Z,5.93
2018-11-05T12:37:34.463Z,6.17
2018-11-05T12:40:02.088Z,6.00
2018-11-05T12:42:29.720Z,6.20
2018-11-05T12:44:58.345Z,5.90
2018-11-05T12:47:25.948Z,6.03
2018-11-05T12:49:53.741Z,5.70
2018-11-05T12:52:21.493Z,5.43
2018-11-05T12:54:49.082Z,5.73
2018-11-05T12:57:17.600Z,5.73
2018-11-05T12:59:45.208Z,5.93
2018-11-05T13:02:12.679Z,5.40
2018-11-05T13:04:40.170Z,5.73
2018-11-05T13:07:07.691Z,5.37
2018-11-05T13:09:35.203Z,5.70
2018-11-05T13:12:02.919Z,6.00
2018-11-05T13:14:30.945Z,5.47
2018-11-05T13:16:58.517Z,5.63
2018-11-05T13:19:26.181Z,5.73
2018-11-05T13:21:54.137Z,6.10
2018-11-05T13:24:21.617Z,5.67
2018-11-05T13:26:49.231Z,6.00
2018-11-05T13:29:16.891Z,5.40
2018-11-05T13:31:44.515Z,5.87
2018-11-05T13:34:12.111Z,5.23
2018-11-05T13:36:40.080Z,5.80
2018-11-05T13:39:08.885Z,5.87
2018-11-05T13:41:36.385Z,6.07
2018-11-05T13:44:04.004Z,5.80
2018-11-05T13:46:32.068Z,5.40
2018-11-05T13:48:59.604Z,5.33
2018-11-05T13:51:27.037Z,5.23
2018-11-05T13:53:54.596Z,5.23
2018-11-05T13:56:22.089Z,5.57
2018-11-05T13:58:49.623Z,5.63
2018-11-05T14:01:17.249Z,5.67
2018-11-05T14:03:44.995Z,5.57
2018-11-05T14:06:12.674Z,5.83
2018-11-05T14:08:40.193Z,5.97
2018-11-05T14:11:07.967Z,6.07
2018-11-05T14:13:35.651Z,6.03
2018-11-05T14:16:03.393Z,6.13
2018-11-05T14:18:31.122Z,6.60
2018-11-05T14:20:58.659Z,6.53
2018-11-05T14:23:26.210Z,6.40
2018-11-05T14:25:53.745Z,6.20
2018-11-05T14:28:21.678Z,6.10
2018-11-05T14:30:48.978Z,6.40
2018-11-05T14:33:16.554Z,6.47
2018-11-05T14:35:44.252Z,6.77
2018-11-05T14:38:11.758Z,6.67
2018-11-05T14:40:39.407Z,7.27
2018-11-05T14:43:06.991Z,7.57
2018-11-05T14:45:34.510Z,6.97
2018-11-05T14:48:02.109Z,7.70
2018-11-05T14:50:29.803Z,7.03
2018-11-05T14:52:57.314Z,7.17
2018-11-05T14:55:24.900Z,7.10
2018-11-05T14:57:52.514Z,7.20
2018-11-05T15:00:23.307Z,6.70
2018-11-05T15:02:50.971Z,7.10
2018-11-05T15:05:18.516Z,7.10
2018-11-05T15:07:46.927Z,7.60
2018-11-05T15:10:16.074Z,7.37
2018-11-05T15:12:43.841Z,6.97
2018-11-05T15:15:12.439Z,7.23
2018-11-05T15:17:40.367Z,8.30
2018-11-05T15:20:10.246Z,7.60
2018-11-05T15:22:38.192Z,8.37
2018-11-05T15:25:05.878Z,8.40
2018-11-05T15:27:34.354Z,8.63
2018-11-05T15:30:02.062Z,9.27
2018-11-05T15:32:29.656Z,8.60
2018-11-05T15:34:57.308Z,9.07
2018-11-05T15:37:24.848Z,9.37
2018-11-05T15:39:52.374Z,9.10
2018-11-05T15:42:19.942Z,9.17
2018-11-05T15:44:47.506Z,9.33
2018-11-05T15:47:14.926Z,9.37
2018-11-05T15:49:42.505Z,9.43
2018-11-05T15:52:10.257Z,9.20
2018-11-05T15:54:37.687Z,8.83
2018-11-05T15:57:05.628Z,8.40
2018-11-05T15:59:33.185Z,7.50
2018-11-05T16:02:05.189Z,8.00
2018-11-05T16:04:35.736Z,7.77
2018-11-05T16:07:03.246Z,7.57
2018-11-05T16:09:30.902Z,8.00
2018-11-05T16:11:59.334Z,8.43
2018-11-05T16:14:26.980Z,8.23
2018-11-05T16:16:54.589Z,7.70
2018-11-05T16:19:22.263Z,8.83
2018-11-05T16:21:49.908Z,8.47
2018-11-05T16:24:17.408Z,7.40
2018-11-05T16:26:51.573Z,8.17
2018-11-05T16:29:19.133Z,6.93
2018-11-05T16:31:46.739Z,5.67
2018-11-05T16:34:14.511Z,6.30
2018-11-05T16:36:42.176Z,6.73
2018-11-05T16:39:11.646Z,6.40
2018-11-05T16:41:39.661Z,6.03
2018-11-05T16:44:07.622Z,6.33
2018-11-05T16:46:35.171Z,5.53
2018-11-05T16:49:02.819Z,6.17
2018-11-05T16:51:30.363Z,5.27
2018-11-05T16:53:57.984Z,5.27
2018-11-05T16:56:25.382Z,4.90
2018-11-05T16:58:52.943Z,4.60
2018-11-05T17:01:21.052Z,4.47
2018-11-05T17:03:48.360Z,3.67
2018-11-05T17:06:15.990Z,3.67
2018-11-05T17:08:43.574Z,3.40
2018-11-05T17:11:11.527Z,3.37
2018-11-05T17:13:39.827Z,3.10
2018-11-05T17:16:07.297Z,3.40
2018-11-05T17:18:34.872Z,3.70
2018-11-05T17:21:02.415Z,3.70
2018-11-05T17:23:30.188Z,3.53
2018-11-05T17:25:57.765Z,4.37
2018-11-05T17:28:25.622Z,3.90
2018-11-05T17:30:53.237Z,4.10
2018-11-05T17:33:20.869Z,4.43
2018-11-05T17:35:48.414Z,3.90
2018-11-05T17:38:15.984Z,3.70
2018-11-05T17:40:47.504Z,3.57
2018-11-05T17:43:15.142Z,3.33
2018-11-05T17:45:42.832Z,3.33
2018-11-05T17:48:10.490Z,3.60
2018-11-05T17:50:38.143Z,3.70
2018-11-05T17:53:05.866Z,3.30
2018-11-05T17:55:33.478Z,3.60
2018-11-05T17:58:01.146Z,3.50
2018-11-05T18:00:29.166Z,3.80
2018-11-05T18:02:56.850Z,3.70
2018-11-05T18:05:24.504Z,4.00
2018-11-05T18:07:51.960Z,3.87
2018-11-05T18:10:19.625Z,4.23
2018-11-05T18:12:47.262Z,4.60
2018-11-05T18:15:14.893Z,4.60
2018-11-05T18:17:43.611Z,4.93
2018-11-05T18:20:12.444Z,4.80
2018-11-05T18:22:40.030Z,5.07
2018-11-05T18:25:09.553Z,4.60
2018-11-05T18:27:37.302Z,4.87
2018-11-05T18:30:05.031Z,4.93
2018-11-05T18:32:32.518Z,5.40
2018-11-05T18:35:00.246Z,5.10
2018-11-05T18:37:27.701Z,5.40
2018-11-05T18:39:55.484Z,5.57
2018-11-05T18:42:24.030Z,6.07
2018-11-05T18:44:51.771Z,5.80
2018-11-05T18:47:19.374Z,6.07
2018-11-05T18:49:47.082Z,6.00
2018-11-05T18:52:14.693Z,6.07
2018-11-05T18:54:42.262Z,5.37
2018-11-05T18:57:10.025Z,6.00
2018-11-05T18:59:37.804Z,5.60
2018-11-05T19:02:05.432Z,5.77
2018-11-05T19:04:33.101Z,5.53
2018-11-05T19:07:00.801Z,6.77
2018-11-05T19:09:29.893Z,5.77
2018-11-05T19:11:58.283Z,5.97
2018-11-05T19:14:25.866Z,5.57
2018-11-05T19:16:53.443Z,5.30
2018-11-05T19:19:21.105Z,5.53
2018-11-05T19:21:48.800Z,5.90
2018-11-05T19:24:16.569Z,5.70
2018-11-05T19:26:43.905Z,5.83
2018-11-05T19:29:11.564Z,5.67
2018-11-05T19:31:39.534Z,5.53
2018-11-05T19:34:08.607Z,6.03
2018-11-05T19:36:36.352Z,5.87
2018-11-05T19:39:07.336Z,5.73
2018-11-05T19:41:34.982Z,6.30
2018-11-05T19:44:02.768Z,6.30
2018-11-05T19:46:30.509Z,5.80
2018-11-05T19:48:58.016Z,6.47
2018-11-05T19:51:25.762Z,6.47
2018-11-05T19:53:53.532Z,6.67
2018-11-05T19:56:21.089Z,6.50
2018-11-05T19:58:48.684Z,6.37
2018-11-05T20:01:16.187Z,7.20
2018-11-05T20:03:43.851Z,6.23
2018-11-05T20:06:11.434Z,4.23
2018-11-05T20:08:39.159Z,3.83
2018-11-05T20:11:06.758Z,3.60
2018-11-05T20:13:34.301Z,3.77
2018-11-05T20:16:02.185Z,3.87
2018-11-05T20:18:30.167Z,4.07
2018-11-05T20:20:58.055Z,3.80
2018-11-05T20:23:25.637Z,3.80
2018-11-05T20:25:53.446Z,3.40
2018-11-05T20:28:21.109Z,3.60
2018-11-05T20:30:48.734Z,3.23
2018-11-05T20:33:16.476Z,2.87
2018-11-05T20:35:43.862Z,3.20
2018-11-05T20:38:11.596Z,3.17
2018-11-05T20:40:39.293Z,3.03
2018-11-05T20:43:07.055Z,2.80
2018-11-05T20:45:34.679Z,2.73
2018-11-05T20:48:02.456Z,2.87
2018-11-05T20:50:30.382Z,2.90
2018-11-05T20:52:57.948Z,2.90
2018-11-05T20:55:25.642Z,2.60
2018-11-05T20:57:53.229Z,2.90
2018-11-05T21:00:21.512Z,3.10
2018-11-05T21:02:49.522Z,2.70
2018-11-05T21:05:17.075Z,2.60
2018-11-05T21:07:44.701Z,2.80
2018-11-05T21:10:13.283Z,2.90
2018-11-05T21:12:41.894Z,2.83
2018-11-05T21:15:17.050Z,3.00
2018-11-05T21:17:45.917Z,2.90
2018-11-05T21:20:14.368Z,2.87
2018-11-05T21:22:42.051Z,2.90
2018-11-05T21:25:09.594Z,2.90
2018-11-05T21:27:37.266Z,3.03
2018-11-05T21:30:07.825Z,3.00
2018-11-05T21:32:35.675Z,3.00
2018-11-05T21:35:03.468Z,3.13
2018-11-05T21:37:30.956Z,3.40
2018-11-05T21:39:58.566Z,3.30
2018-11-05T21:42:26.101Z,3.00
2018-11-05T21:44:53.721Z,3.13
2018-11-05T21:47:21.395Z,3.03
2018-11-05T21:49:50.945Z,3.40
2018-11-05T21:52:19.850Z,3.23
2018-11-05T21:54:47.614Z,3.00
2018-11-05T21:57:15.163Z,2.90
2018-11-05T21:59:42.812Z,3.17
2018-11-05T22:02:11.704Z,2.80
2018-11-05T22:04:39.158Z,2.90
2018-11-05T22:07:06.961Z,3.23
2018-11-05T22:09:34.531Z,2.97
2018-11-05T22:12:03.269Z,3.23
2018-11-05T22:14:30.892Z,3.40
2018-11-05T22:16:58.659Z,3.17
2018-11-05T22:19:26.232Z,2.90
2018-11-05T22:21:53.877Z,3.30
2018-11-05T22:24:21.421Z,3.80
2018-11-05T22:26:52.593Z,3.30
2018-11-05T22:29:20.296Z,3.60
2018-11-05T22:31:47.837Z,3.60
2018-11-05T22:37:03.538Z,3.40
2018-11-05T22:39:31.059Z,3.20
2018-11-05T22:41:59.011Z,3.20
2018-11-05T22:44:26.551Z,2.83
2018-11-05T22:46:54.199Z,2.77
2018-11-05T22:49:21.745Z,3.23
2018-11-05T22:51:49.383Z,2.87
2018-11-05T22:54:16.977Z,3.00
2018-11-05T22:56:44.527Z,3.20
2018-11-05T22:59:12.081Z,3.30
2018-11-05T23:01:45.333Z,3.10
2018-11-05T23:04:12.846Z,2.90
2018-11-05T23:06:40.354Z,3.20
2018-11-05T23:09:07.880Z,3.10
2018-11-05T23:11:35.418Z,3.40
2018-11-05T23:14:02.955Z,3.30
2018-11-05T23:16:30.534Z,3.10
2018-11-05T23:18:58.046Z,3.30
2018-11-05T23:21:25.604Z,3.50
2018-11-05T23:23:53.160Z,3.50
2018-11-05T23:26:20.641Z,3.40
2018-11-05T23:28:48.186Z,3.80
2018-11-05T23:31:15.792Z,3.63
2018-11-05T23:33:43.321Z,3.47
2018-11-05T23:36:10.886Z,3.60
2018-11-05T23:38:38.386Z,3.43
2018-11-05T23:41:05.942Z,3.40
2018-11-05T23:43:33.374Z,3.50
2018-11-05T23:46:00.964Z,3.40
2018-11-05T23:48:28.431Z,3.27
2018-11-05T23:50:55.994Z,3.10
2018-11-05T23:53:23.562Z,3.00
2018-11-05T23:55:50.984Z,3.00
2018-11-05T23:58:18.435Z,2.67
